MST,Max TemperatureF,Mean TemperatureF,Min TemperatureF,Max Dew PointF,MeanDew PointF,Min DewpointF,Max Humidity, Mean Humidity, Min Humidity, Max Sea Level PressureIn, Mean Sea Level PressureIn, Min Sea Level PressureIn, Max VisibilityMiles, Mean VisibilityMiles, Min VisibilityMiles, Max Wind SpeedMPH, Mean Wind SpeedMPH, Max Gust SpeedMPH,PrecipitationIn, CloudCover, Events, WindDirDegrees
2013-2-1,75,62,48,40,37,31,71,47,22,30.19,30.15,30.11,10,10,10,13,5,33,0.00,3,,29
2013-2-2,78,65,52,40,36,32,63,42,20,30.23,30.15,30.10,10,10,10,14,6,28,0.00,6,,15
2013-2-3,76,67,58,44,39,35,55,40,25,30.09,30.02,29.96,10,10,10,15,6,18,T,7,Rain,360
2013-2-4,77,65,52,45,38,30,71,46,20,30.04,29.98,29.92,10,10,8,14,4,18,0.00,1,,356
2013-2-5,79,65,51,44,37,29,61,39,16,30.01,29.93,29.87,10,10,10,10,2,13,0.00,2,,47
2013-2-6,75,66,56,45,40,34,57,40,23,30.01,29.92,29.86,10,10,7,10,3,26,0.00,2,,208
2013-2-7,75,63,50,46,39,23,77,46,14,30.07,29.99,29.88,10,10,10,10,4,12,0.00,1,,180
2013-2-8,66,59,51,41,33,26,59,41,22,29.94,29.88,29.84,10,10,5,23,11,29,T,3,Rain,305
2013-2-9,63,53,43,33,30,25,62,44,25,30.05,29.96,29.87,10,9,7,21,7,28,0.00,1,,269
2013-2-10,62,51,40,32,29,25,65,45,25,30.06,30.01,29.96,7,7,7,14,4,16,0.00,0,,277
2013-2-11,62,52,42,35,26,16,67,43,18,30.19,30.08,29.99,10,9,7,20,7,48,0.00,2,,332
2013-2-12,63,51,38,25,14,3,51,30,9,30.33,30.25,30.21,10,9,7,16,6,22,0.00,0,,9
2013-2-13,70,55,40,27,20,15,51,33,15,30.24,30.17,30.10,10,10,10,20,5,26,0.00,0,,360
2013-2-14,75,60,44,29,26,23,53,34,15,30.19,30.10,30.04,10,10,10,20,7,26,0.00,3,,5
2013-2-15,78,68,58,24,21,17,25,18,10,30.24,30.17,30.12,10,10,10,16,10,21,0.00,6,,9
2013-2-16,81,67,53,26,19,14,26,17,8,30.20,30.09,29.95,10,10,10,12,8,17,0.00,2,,1
2013-2-17,78,62,45,29,23,13,45,27,8,29.94,29.89,29.83,10,10,8,8,4,,0.00,1,,224
2013-2-18,75,61,47,35,28,20,46,32,17,30.01,29.92,29.86,10,10,10,10,3,14,0.00,3,,51
2013-2-19,68,57,46,45,36,31,86,56,26,29.87,29.80,29.72,10,10,10,18,8,23,0.00,5,,276
2013-2-20,60,54,47,40,31,20,66,44,21,29.94,29.78,29.67,10,10,10,21,9,29,0.01,5,Rain,274
2013-2-21,65,53,41,39,31,26,63,44,24,30.05,29.98,29.93,10,10,10,16,7,21,0.00,2,,159
2013-2-22,68,56,44,38,27,14,76,45,13,30.18,30.12,30.06,10,10,10,14,4,18,0.00,1,,11
2013-2-23,73,58,42,28,22,13,49,30,10,30.14,29.97,29.80,10,10,10,15,4,21,0.00,0,,200
2013-2-24,65,56,47,32,7,0,50,29,7,30.17,30.06,29.89,10,10,7,30,15,40,0.00,0,,1
2013-2-25,69,54,39,22,13,5,40,24,8,30.24,30.14,30.02,10,10,10,16,4,21,0.00,0,,328
2013-2-26,73,57,41,21,13,6,43,26,8,30.12,30.03,29.98,10,10,7,21,8,26,0.00,1,,7
2013-2-27,70,61,52,12,6,-2,19,13,6,30.26,30.20,30.13,10,10,10,21,12,26,0.00,2,,356
2013-2-28,76,62,48,19,6,2,21,13,5,30.33,30.28,30.24,10,10,10,16,7,21,0.00,0,,342